Shenzhen, Guangdong

12:04 AM CST on August 30, 2014 (GMT +0800)
xili | Change Station
CLOSE
Current Station
Personal Weather Station
Location: Chenzhen, %U5E7F%U4E1C%U7701
Elevation: -7 ft
Nearby Weather Stations

Elev -7 ft 22.54 °N, 114.06 °E | Updated 17 seconds ago

Partly Cloudy
Partly Cloudy
87.4 °F
Feels Like 96 °F
N
1.1
Wind Variable Wind from ENE
Gusts 2.5 mph

Today
High -- | Low -- °F
--% Chance of Precip.
Yesterday
High -- | Low -- °F
Precip. -- in
6:05 AM 6:42 PM
Waxing Crescent, 15% visible
Pressure 29.92 in
Visibility 6.2 miles
Clouds Few 2200 ft
Heat Index 96 °F
Dew Point 74 °F
Humidity 65%
Rainfall 0.00 in
Snow Depth Not available.
UV 0.0 out of 12
Pollen Not available.
Air Quality Not available.
Flu Activity Not available.
METAR VHHH 291530Z 06007KT 9999 FEW022 30/24 Q1013 NOSIG

More Conditions Fewer Conditions

Pressure 29.92 in
Visibility 6.2 miles
Clouds Few 2200 ft
Heat Index 96 °F
Dew Point 74 °F
Humidity 65%
Rainfall 0.00 in
Snow Depth Not available.
UV 0.0 out of 12
Pollen Not available.
Air Quality Not available.
Flu Activity Not available.
METAR VHHH 291530Z 06007KT 9999 FEW022 30/24 Q1013 NOSIG

More Conditions Fewer Conditions

10-Day Weather Forecast

Almanac

Astronomy

Aug. 30, 2014 Rise Set
Actual Time 6:05 AM CST 6:42 PM CST
Civil Twilight 5:42 AM CST 7:05 PM CST
Nautical Twilight 5:15 AM CST 7:32 PM CST
Astronomical Twilight 4:48 AM CST 7:59 PM CST
Moon 9:46 AM CST (8/30) 9:32 PM CST (8/30)
Length of Visible Light 13h 23m
Length of Day
12h 37m
Tomorrow will be 1m 15s shorter.
Waxing Crescent, 15% of the Moon is Illuminated
Aug 29
Waxing Crescent
Sep 2
First Quarter
Sep 8
Full
Sep 15
Last Quarter
Sep 24
New

Yesterday's Extremes

Country Highs Country Lows

Community

WunderPhotos

Upload Photos

1,748,270 photos uploaded!

Nearby

Snow Depth

Not available.

Earthquake Activity

City Distance Mag. Time & Date
No recent earthquake activity has been reported nearby.
Minimum magnitude displayed is 2.5.

Coastal Water Temperatures

Place Temperature
No Stations Reporting

Nearby Weather Stations